sensor_id;sensor_type;location;lat;lon;timestamp;temperature;humidity
10583;DHT22;33679;51.218;6.786;2023-09-08T00:01:11;25.40;99.90
10583;DHT22;33679;51.218;6.786;2023-09-08T00:03:43;25.30;99.90
10583;DHT22;33679;51.218;6.786;2023-09-08T00:06:15;25.30;99.90
10583;DHT22;33679;51.218;6.786;2023-09-08T00:08:49;25.30;99.90
10583;DHT22;33679;51.218;6.786;2023-09-08T00:11:23;25.30;99.90
10583;DHT22;33679;51.218;6.786;2023-09-08T00:13:55;25.30;99.90
10583;DHT22;33679;51.218;6.786;2023-09-08T00:16:27;25.30;99.90
10583;DHT22;33679;51.218;6.786;2023-09-08T00:19:01;25.30;99.90
10583;DHT22;33679;51.218;6.786;2023-09-08T00:21:33;25.30;99.90
10583;DHT22;33679;51.218;6.786;2023-09-08T00:24:06;25.20;99.90
10583;DHT22;33679;51.218;6.786;2023-09-08T00:26:40;25.20;99.90
10583;DHT22;33679;51.218;6.786;2023-09-08T00:29:12;25.20;99.90
10583;DHT22;33679;51.218;6.786;2023-09-08T00:31:45;25.20;99.90
10583;DHT22;33679;51.218;6.786;2023-09-08T00:34:18;25.20;99.90
10583;DHT22;33679;51.218;6.786;2023-09-08T00:36:50;25.20;99.90
10583;DHT22;33679;51.218;6.786;2023-09-08T00:39:23;25.20;99.90
10583;DHT22;33679;51.218;6.786;2023-09-08T00:41:57;25.20;99.90
10583;DHT22;33679;51.218;6.786;2023-09-08T00:44:29;25.10;99.90
10583;DHT22;33679;51.218;6.786;2023-09-08T00:47:02;25.10;99.90
10583;DHT22;33679;51.218;6.786;2023-09-08T00:49:35;25.10;99.90
10583;DHT22;33679;51.218;6.786;2023-09-08T00:52:09;25.10;99.90
10583;DHT22;33679;51.218;6.786;2023-09-08T00:54:42;25.10;99.90
10583;DHT22;33679;51.218;6.786;2023-09-08T00:57:17;25.00;99.90
10583;DHT22;33679;51.218;6.786;2023-09-08T00:59:51;25.00;99.90
10583;DHT22;33679;51.218;6.786;2023-09-08T01:02:23;25.00;99.90
10583;DHT22;33679;51.218;6.786;2023-09-08T01:04:55;25.00;99.90
10583;DHT22;33679;51.218;6.786;2023-09-08T01:07:31;25.00;99.90
10583;DHT22;33679;51.218;6.786;2023-09-08T01:10:05;24.90;99.90
10583;DHT22;33679;51.218;6.786;2023-09-08T01:12:40;24.90;99.90
10583;DHT22;33679;51.218;6.786;2023-09-08T01:15:12;24.90;99.90
10583;DHT22;33679;51.218;6.786;2023-09-08T01:17:45;24.90;99.90
10583;DHT22;33679;51.218;6.786;2023-09-08T01:20:19;24.90;99.90
10583;DHT22;33679;51.218;6.786;2023-09-08T01:23:03;24.80;99.90
10583;DHT22;33679;51.218;6.786;2023-09-08T01:25:42;24.80;99.90
10583;DHT22;33679;51.218;6.786;2023-09-08T01:28:20;24.80;99.90
10583;DHT22;33679;51.218;6.786;2023-09-08T01:30:55;24.70;99.90
10583;DHT22;33679;51.218;6.786;2023-09-08T01:33:29;24.70;99.90
10583;DHT22;33679;51.218;6.786;2023-09-08T01:36:03;24.70;99.90
10583;DHT22;33679;51.218;6.786;2023-09-08T01:38:35;24.70;99.90
10583;DHT22;33679;51.218;6.786;2023-09-08T01:41:09;24.70;99.90
10583;DHT22;33679;51.218;6.786;2023-09-08T01:43:41;24.60;99.90
10583;DHT22;33679;51.218;6.786;2023-09-08T01:46:14;24.60;99.90
10583;DHT22;33679;51.218;6.786;2023-09-08T01:48:46;24.60;99.90
10583;DHT22;33679;51.218;6.786;2023-09-08T01:51:19;24.60;99.90
10583;DHT22;33679;51.218;6.786;2023-09-08T01:53:51;24.60;99.90
10583;DHT22;33679;51.218;6.786;2023-09-08T01:56:25;24.50;99.90
10583;DHT22;33679;51.218;6.786;2023-09-08T01:58:57;24.50;99.90
10583;DHT22;33679;51.218;6.786;2023-09-08T02:01:30;24.50;99.90
10583;DHT22;33679;51.218;6.786;2023-09-08T02:04:05;24.50;99.90
10583;DHT22;33679;51.218;6.786;2023-09-08T02:06:37;24.50;99.90
10583;DHT22;33679;51.218;6.786;2023-09-08T02:09:13;24.40;99.90
10583;DHT22;33679;51.218;6.786;2023-09-08T02:11:47;24.40;99.90
10583;DHT22;33679;51.218;6.786;2023-09-08T02:14:19;24.40;99.90
10583;DHT22;33679;51.218;6.786;2023-09-08T02:16:51;24.40;99.90
10583;DHT22;33679;51.218;6.786;2023-09-08T02:19:24;24.30;99.90
10583;DHT22;33679;51.218;6.786;2023-09-08T02:21:56;24.40;99.90
10583;DHT22;33679;51.218;6.786;2023-09-08T02:24:28;24.30;99.90
10583;DHT22;33679;51.218;6.786;2023-09-08T02:27:03;24.30;99.90
10583;DHT22;33679;51.218;6.786;2023-09-08T02:29:35;24.30;99.90
10583;DHT22;33679;51.218;6.786;2023-09-08T02:32:08;24.30;99.90
10583;DHT22;33679;51.218;6.786;2023-09-08T02:34:40;24.30;99.90
10583;DHT22;33679;51.218;6.786;2023-09-08T02:37:17;24.30;99.90
10583;DHT22;33679;51.218;6.786;2023-09-08T02:39:50;24.20;99.90
10583;DHT22;33679;51.218;6.786;2023-09-08T02:42:24;24.30;99.90
10583;DHT22;33679;51.218;6.786;2023-09-08T02:44:56;24.20;99.90
10583;DHT22;33679;51.218;6.786;2023-09-08T02:47:28;24.20;99.90
10583;DHT22;33679;51.218;6.786;2023-09-08T02:50:02;24.20;99.90
10583;DHT22;33679;51.218;6.786;2023-09-08T02:52:37;24.10;99.90
10583;DHT22;33679;51.218;6.786;2023-09-08T02:55:10;24.10;99.90
10583;DHT22;33679;51.218;6.786;2023-09-08T02:57:43;24.10;99.90
10583;DHT22;33679;51.218;6.786;2023-09-08T03:00:16;24.10;99.90
10583;DHT22;33679;51.218;6.786;2023-09-08T03:02:48;24.10;99.90
10583;DHT22;33679;51.218;6.786;2023-09-08T03:05:20;24.10;99.90
10583;DHT22;33679;51.218;6.786;2023-09-08T03:07:53;24.10;99.90
10583;DHT22;33679;51.218;6.786;2023-09-08T03:10:26;24.10;99.90
10583;DHT22;33679;51.218;6.786;2023-09-08T03:13:00;24.10;99.90
10583;DHT22;33679;51.218;6.786;2023-09-08T03:15:34;24.10;99.90
10583;DHT22;33679;51.218;6.786;2023-09-08T03:18:07;24.00;99.90
10583;DHT22;33679;51.218;6.786;2023-09-08T03:20:39;24.00;99.90
10583;DHT22;33679;51.218;6.786;2023-09-08T03:23:11;24.00;99.90
10583;DHT22;33679;51.218;6.786;2023-09-08T03:25:44;24.00;99.90
10583;DHT22;33679;51.218;6.786;2023-09-08T03:28:18;24.00;99.90
10583;DHT22;33679;51.218;6.786;2023-09-08T03:30:50;24.00;99.90
10583;DHT22;33679;51.218;6.786;2023-09-08T03:33:23;24.00;99.90
10583;DHT22;33679;51.218;6.786;2023-09-08T03:35:57;23.90;99.90
10583;DHT22;33679;51.218;6.786;2023-09-08T03:38:30;23.90;99.90
10583;DHT22;33679;51.218;6.786;2023-09-08T03:41:02;23.90;99.90
10583;DHT22;33679;51.218;6.786;2023-09-08T03:43:36;23.90;99.90
10583;DHT22;33679;51.218;6.786;2023-09-08T03:46:08;23.90;99.90
10583;DHT22;33679;51.218;6.786;2023-09-08T03:48:40;23.80;99.90
10583;DHT22;33679;51.218;6.786;2023-09-08T03:51:13;23.80;99.90
10583;DHT22;33679;51.218;6.786;2023-09-08T03:53:45;23.80;99.90
10583;DHT22;33679;51.218;6.786;2023-09-08T03:56:17;23.80;99.90
10583;DHT22;33679;51.218;6.786;2023-09-08T03:58:52;23.70;99.90
10583;DHT22;33679;51.218;6.786;2023-09-08T04:01:25;23.70;99.90
10583;DHT22;33679;51.218;6.786;2023-09-08T04:03:57;23.70;99.90
10583;DHT22;33679;51.218;6.786;2023-09-08T04:06:29;23.70;99.90
10583;DHT22;33679;51.218;6.786;2023-09-08T04:09:02;23.60;99.90
10583;DHT22;33679;51.218;6.786;2023-09-08T04:11:35;23.60;99.90
10583;DHT22;33679;51.218;6.786;2023-09-08T04:14:08;23.60;99.90
10583;DHT22;33679;51.218;6.786;2023-09-08T04:16:41;23.60;99.90
10583;DHT22;33679;51.218;6.786;2023-09-08T04:19:13;23.60;99.90
10583;DHT22;33679;51.218;6.786;2023-09-08T04:21:45;23.50;99.90
10583;DHT22;33679;51.218;6.786;2023-09-08T04:24:19;23.50;99.90
10583;DHT22;33679;51.218;6.786;2023-09-08T04:26:51;23.50;99.90
10583;DHT22;33679;51.218;6.786;2023-09-08T04:29:25;23.60;99.90
10583;DHT22;33679;51.218;6.786;2023-09-08T04:32:00;23.50;99.90
10583;DHT22;33679;51.218;6.786;2023-09-08T04:34:40;23.50;99.90
10583;DHT22;33679;51.218;6.786;2023-09-08T04:37:12;23.50;99.90
10583;DHT22;33679;51.218;6.786;2023-09-08T04:39:44;23.40;99.90
10583;DHT22;33679;51.218;6.786;2023-09-08T04:42:18;23.40;99.90
10583;DHT22;33679;51.218;6.786;2023-09-08T04:44:52;23.40;99.90
10583;DHT22;33679;51.218;6.786;2023-09-08T04:47:24;23.40;99.90
10583;DHT22;33679;51.218;6.786;2023-09-08T04:49:58;23.40;99.90
10583;DHT22;33679;51.218;6.786;2023-09-08T04:52:32;23.40;99.90
10583;DHT22;33679;51.218;6.786;2023-09-08T04:55:07;23.50;99.90
10583;DHT22;33679;51.218;6.786;2023-09-08T04:57:42;23.60;99.90
10583;DHT22;33679;51.218;6.786;2023-09-08T05:00:17;23.50;99.90
10583;DHT22;33679;51.218;6.786;2023-09-08T05:02:50;23.50;99.90
10583;DHT22;33679;51.218;6.786;2023-09-08T05:05:22;23.50;99.90
10583;DHT22;33679;51.218;6.786;2023-09-08T05:07:55;23.40;99.90
10583;DHT22;33679;51.218;6.786;2023-09-08T05:10:29;23.40;99.90
10583;DHT22;33679;51.218;6.786;2023-09-08T05:13:02;23.40;99.90
10583;DHT22;33679;51.218;6.786;2023-09-08T05:15:36;23.40;99.90
10583;DHT22;33679;51.218;6.786;2023-09-08T05:18:10;23.40;99.90
10583;DHT22;33679;51.218;6.786;2023-09-08T05:20:42;23.40;99.90
10583;DHT22;33679;51.218;6.786;2023-09-08T05:23:14;23.40;99.90
10583;DHT22;33679;51.218;6.786;2023-09-08T05:25:46;23.40;99.90
10583;DHT22;33679;51.218;6.786;2023-09-08T05:28:19;23.30;99.90
10583;DHT22;33679;51.218;6.786;2023-09-08T05:30:53;23.30;99.90
10583;DHT22;33679;51.218;6.786;2023-09-08T05:33:26;23.30;99.90
10583;DHT22;33679;51.218;6.786;2023-09-08T05:35:59;23.30;99.90
10583;DHT22;33679;51.218;6.786;2023-09-08T05:38:31;23.30;99.90
10583;DHT22;33679;51.218;6.786;2023-09-08T05:41:04;23.40;99.90
10583;DHT22;33679;51.218;6.786;2023-09-08T05:43:37;23.40;99.90
10583;DHT22;33679;51.218;6.786;2023-09-08T05:46:13;23.40;99.90
10583;DHT22;33679;51.218;6.786;2023-09-08T05:48:46;23.40;99.90
10583;DHT22;33679;51.218;6.786;2023-09-08T05:51:20;23.40;99.90
10583;DHT22;33679;51.218;6.786;2023-09-08T05:53:54;23.40;99.90
10583;DHT22;33679;51.218;6.786;2023-09-08T05:56:30;23.40;99.90
10583;DHT22;33679;51.218;6.786;2023-09-08T05:59:03;23.50;99.90
10583;DHT22;33679;51.218;6.786;2023-09-08T06:01:37;23.50;99.90
10583;DHT22;33679;51.218;6.786;2023-09-08T06:04:13;23.50;99.90
10583;DHT22;33679;51.218;6.786;2023-09-08T06:06:45;23.50;99.90
10583;DHT22;33679;51.218;6.786;2023-09-08T06:09:19;23.60;99.90
10583;DHT22;33679;51.218;6.786;2023-09-08T06:11:51;23.60;99.90
10583;DHT22;33679;51.218;6.786;2023-09-08T06:14:24;23.60;99.90
10583;DHT22;33679;51.218;6.786;2023-09-08T06:16:58;23.60;99.90
10583;DHT22;33679;51.218;6.786;2023-09-08T06:19:31;23.70;99.90
10583;DHT22;33679;51.218;6.786;2023-09-08T06:22:03;23.70;99.90
10583;DHT22;33679;51.218;6.786;2023-09-08T06:24:36;23.70;99.90
10583;DHT22;33679;51.218;6.786;2023-09-08T06:27:10;23.80;99.90
10583;DHT22;33679;51.218;6.786;2023-09-08T06:29:44;23.80;99.90
10583;DHT22;33679;51.218;6.786;2023-09-08T06:32:20;23.90;99.90
10583;DHT22;33679;51.218;6.786;2023-09-08T06:34:54;23.90;99.90
10583;DHT22;33679;51.218;6.786;2023-09-08T06:37:29;23.90;99.90
10583;DHT22;33679;51.218;6.786;2023-09-08T06:40:07;24.00;99.90
10583;DHT22;33679;51.218;6.786;2023-09-08T06:42:39;24.00;99.90
10583;DHT22;33679;51.218;6.786;2023-09-08T06:45:21;24.00;99.90
10583;DHT22;33679;51.218;6.786;2023-09-08T06:47:59;24.10;99.90
10583;DHT22;33679;51.218;6.786;2023-09-08T06:50:32;24.10;99.90
10583;DHT22;33679;51.218;6.786;2023-09-08T06:53:04;24.20;99.90
10583;DHT22;33679;51.218;6.786;2023-09-08T06:55:36;24.20;99.90
10583;DHT22;33679;51.218;6.786;2023-09-08T06:58:13;24.20;99.90
10583;DHT22;33679;51.218;6.786;2023-09-08T07:00:46;24.30;99.90
10583;DHT22;33679;51.218;6.786;2023-09-08T07:03:22;24.30;99.90
10583;DHT22;33679;51.218;6.786;2023-09-08T07:05:57;24.30;99.90
10583;DHT22;33679;51.218;6.786;2023-09-08T07:08:29;24.40;99.90
10583;DHT22;33679;51.218;6.786;2023-09-08T07:11:02;24.40;99.90
10583;DHT22;33679;51.218;6.786;2023-09-08T07:13:35;24.50;99.90
10583;DHT22;33679;51.218;6.786;2023-09-08T07:16:11;24.60;99.90
10583;DHT22;33679;51.218;6.786;2023-09-08T07:18:48;24.60;99.90
10583;DHT22;33679;51.218;6.786;2023-09-08T07:21:22;24.70;99.90
10583;DHT22;33679;51.218;6.786;2023-09-08T07:23:54;24.70;99.90
10583;DHT22;33679;51.218;6.786;2023-09-08T07:26:29;24.80;99.90
10583;DHT22;33679;51.218;6.786;2023-09-08T07:29:05;24.80;99.90
10583;DHT22;33679;51.218;6.786;2023-09-08T07:31:37;24.80;99.90
10583;DHT22;33679;51.218;6.786;2023-09-08T07:34:17;24.90;99.90
10583;DHT22;33679;51.218;6.786;2023-09-08T07:36:51;24.90;99.90
10583;DHT22;33679;51.218;6.786;2023-09-08T07:39:23;24.90;99.90
10583;DHT22;33679;51.218;6.786;2023-09-08T07:41:55;25.00;99.90
10583;DHT22;33679;51.218;6.786;2023-09-08T07:44:28;25.00;99.90
10583;DHT22;33679;51.218;6.786;2023-09-08T07:47:01;25.00;99.90
10583;DHT22;33679;51.218;6.786;2023-09-08T07:49:35;25.10;99.90
10583;DHT22;33679;51.218;6.786;2023-09-08T07:52:09;25.10;99.90
10583;DHT22;33679;51.218;6.786;2023-09-08T07:54:43;25.20;99.90
10583;DHT22;33679;51.218;6.786;2023-09-08T07:57:15;25.20;99.90
10583;DHT22;33679;51.218;6.786;2023-09-08T07:59:47;25.20;99.90
10583;DHT22;33679;51.218;6.786;2023-09-08T08:02:19;25.20;99.90
10583;DHT22;33679;51.218;6.786;2023-09-08T08:04:53;25.40;99.90
10583;DHT22;33679;51.218;6.786;2023-09-08T08:07:26;25.40;99.90
10583;DHT22;33679;51.218;6.786;2023-09-08T08:10:01;25.40;99.90
10583;DHT22;33679;51.218;6.786;2023-09-08T08:12:33;25.50;99.90
10583;DHT22;33679;51.218;6.786;2023-09-08T08:15:07;25.60;99.90
10583;DHT22;33679;51.218;6.786;2023-09-08T08:17:42;25.60;99.90
10583;DHT22;33679;51.218;6.786;2023-09-08T08:20:16;25.70;99.90
10583;DHT22;33679;51.218;6.786;2023-09-08T08:22:49;25.80;99.90
10583;DHT22;33679;51.218;6.786;2023-09-08T08:25:22;25.80;99.90
10583;DHT22;33679;51.218;6.786;2023-09-08T08:27:55;25.90;99.90
10583;DHT22;33679;51.218;6.786;2023-09-08T08:30:29;25.90;99.90
10583;DHT22;33679;51.218;6.786;2023-09-08T08:33:01;26.00;99.90
10583;DHT22;33679;51.218;6.786;2023-09-08T08:35:36;26.00;99.90
10583;DHT22;33679;51.218;6.786;2023-09-08T08:38:11;26.10;99.90
10583;DHT22;33679;51.218;6.786;2023-09-08T08:40:45;26.30;99.90
10583;DHT22;33679;51.218;6.786;2023-09-08T08:43:20;26.30;99.90
10583;DHT22;33679;51.218;6.786;2023-09-08T08:46:00;26.40;99.90
10583;DHT22;33679;51.218;6.786;2023-09-08T08:48:32;26.50;99.90
10583;DHT22;33679;51.218;6.786;2023-09-08T08:51:18;26.50;99.90
10583;DHT22;33679;51.218;6.786;2023-09-08T08:53:51;26.60;99.90
10583;DHT22;33679;51.218;6.786;2023-09-08T08:56:24;26.60;99.90
10583;DHT22;33679;51.218;6.786;2023-09-08T08:59:01;26.70;99.90
10583;DHT22;33679;51.218;6.786;2023-09-08T09:01:34;26.80;99.90
10583;DHT22;33679;51.218;6.786;2023-09-08T09:04:08;26.80;99.90
10583;DHT22;33679;51.218;6.786;2023-09-08T09:06:42;26.80;99.90
10583;DHT22;33679;51.218;6.786;2023-09-08T09:09:15;26.90;99.90
10583;DHT22;33679;51.218;6.786;2023-09-08T09:11:48;27.00;99.90
10583;DHT22;33679;51.218;6.786;2023-09-08T09:14:21;27.00;99.90
10583;DHT22;33679;51.218;6.786;2023-09-08T09:16:56;27.10;99.90
10583;DHT22;33679;51.218;6.786;2023-09-08T09:19:29;27.10;99.90
10583;DHT22;33679;51.218;6.786;2023-09-08T09:22:04;27.20;99.90
10583;DHT22;33679;51.218;6.786;2023-09-08T09:24:38;27.20;99.90
10583;DHT22;33679;51.218;6.786;2023-09-08T09:27:12;27.30;99.90
10583;DHT22;33679;51.218;6.786;2023-09-08T09:29:45;27.30;99.90
10583;DHT22;33679;51.218;6.786;2023-09-08T09:32:23;27.40;99.90
10583;DHT22;33679;51.218;6.786;2023-09-08T09:34:57;27.50;99.90
10583;DHT22;33679;51.218;6.786;2023-09-08T09:37:33;27.50;99.90
10583;DHT22;33679;51.218;6.786;2023-09-08T09:40:08;27.50;99.90
10583;DHT22;33679;51.218;6.786;2023-09-08T09:42:42;27.60;99.90
10583;DHT22;33679;51.218;6.786;2023-09-08T09:45:14;27.60;99.90
10583;DHT22;33679;51.218;6.786;2023-09-08T09:47:47;27.70;99.90
10583;DHT22;33679;51.218;6.786;2023-09-08T09:50:28;27.70;99.90
10583;DHT22;33679;51.218;6.786;2023-09-08T09:53:08;27.80;99.90
10583;DHT22;33679;51.218;6.786;2023-09-08T09:55:42;27.90;99.90
10583;DHT22;33679;51.218;6.786;2023-09-08T09:58:18;27.90;99.90
10583;DHT22;33679;51.218;6.786;2023-09-08T10:00:51;28.00;99.90
10583;DHT22;33679;51.218;6.786;2023-09-08T10:03:26;28.00;99.90
10583;DHT22;33679;51.218;6.786;2023-09-08T10:06:03;28.10;99.90
10583;DHT22;33679;51.218;6.786;2023-09-08T10:08:37;28.20;99.90
10583;DHT22;33679;51.218;6.786;2023-09-08T10:11:12;28.20;99.90
10583;DHT22;33679;51.218;6.786;2023-09-08T10:13:46;28.30;99.90
10583;DHT22;33679;51.218;6.786;2023-09-08T10:16:22;28.30;99.90
10583;DHT22;33679;51.218;6.786;2023-09-08T10:18:58;28.40;99.90
10583;DHT22;33679;51.218;6.786;2023-09-08T10:21:33;28.40;99.90
10583;DHT22;33679;51.218;6.786;2023-09-08T10:24:14;28.50;99.90
10583;DHT22;33679;51.218;6.786;2023-09-08T10:26:53;28.50;99.90
10583;DHT22;33679;51.218;6.786;2023-09-08T10:29:29;28.60;99.90
10583;DHT22;33679;51.218;6.786;2023-09-08T10:32:03;28.60;99.90
10583;DHT22;33679;51.218;6.786;2023-09-08T10:34:36;28.70;99.90
10583;DHT22;33679;51.218;6.786;2023-09-08T10:37:20;28.70;99.90
10583;DHT22;33679;51.218;6.786;2023-09-08T10:39:53;28.80;99.90
10583;DHT22;33679;51.218;6.786;2023-09-08T10:42:27;28.80;99.90
10583;DHT22;33679;51.218;6.786;2023-09-08T10:45:01;28.90;99.90
10583;DHT22;33679;51.218;6.786;2023-09-08T10:47:54;28.90;99.90
10583;DHT22;33679;51.218;6.786;2023-09-08T10:50:31;29.10;99.90
10583;DHT22;33679;51.218;6.786;2023-09-08T10:53:09;29.10;99.90
10583;DHT22;33679;51.218;6.786;2023-09-08T10:55:45;29.10;99.90
10583;DHT22;33679;51.218;6.786;2023-09-08T10:58:31;29.20;99.90
10583;DHT22;33679;51.218;6.786;2023-09-08T11:01:06;29.30;99.90
10583;DHT22;33679;51.218;6.786;2023-09-08T11:03:45;29.30;99.90
10583;DHT22;33679;51.218;6.786;2023-09-08T11:06:21;29.30;99.90
10583;DHT22;33679;51.218;6.786;2023-09-08T11:09:06;29.30;99.90
10583;DHT22;33679;51.218;6.786;2023-09-08T11:11:40;29.40;99.90
10583;DHT22;33679;51.218;6.786;2023-09-08T11:14:13;29.40;99.90
10583;DHT22;33679;51.218;6.786;2023-09-08T11:16:47;29.50;99.90
10583;DHT22;33679;51.218;6.786;2023-09-08T11:19:19;29.50;99.90
10583;DHT22;33679;51.218;6.786;2023-09-08T11:21:52;29.60;99.90
10583;DHT22;33679;51.218;6.786;2023-09-08T11:24:24;29.60;99.90
10583;DHT22;33679;51.218;6.786;2023-09-08T11:26:59;29.60;99.90
10583;DHT22;33679;51.218;6.786;2023-09-08T11:29:34;29.70;99.90
10583;DHT22;33679;51.218;6.786;2023-09-08T11:32:07;29.70;99.90
10583;DHT22;33679;51.218;6.786;2023-09-08T11:34:40;29.80;99.90
10583;DHT22;33679;51.218;6.786;2023-09-08T11:37:14;29.80;99.90
10583;DHT22;33679;51.218;6.786;2023-09-08T11:39:48;29.80;99.90
10583;DHT22;33679;51.218;6.786;2023-09-08T11:42:22;29.80;99.90
10583;DHT22;33679;51.218;6.786;2023-09-08T11:44:57;29.90;99.90
10583;DHT22;33679;51.218;6.786;2023-09-08T11:47:29;29.80;99.90
10583;DHT22;33679;51.218;6.786;2023-09-08T11:50:04;29.80;99.90
10583;DHT22;33679;51.218;6.786;2023-09-08T11:52:40;29.90;99.90
10583;DHT22;33679;51.218;6.786;2023-09-08T11:55:13;29.90;99.90
10583;DHT22;33679;51.218;6.786;2023-09-08T11:57:49;30.00;99.90
10583;DHT22;33679;51.218;6.786;2023-09-08T12:00:22;30.00;99.90
10583;DHT22;33679;51.218;6.786;2023-09-08T12:03:09;30.00;99.90
10583;DHT22;33679;51.218;6.786;2023-09-08T12:05:42;30.10;99.90
10583;DHT22;33679;51.218;6.786;2023-09-08T12:08:16;30.10;99.90
10583;DHT22;33679;51.218;6.786;2023-09-08T12:10:53;30.10;99.90
10583;DHT22;33679;51.218;6.786;2023-09-08T12:13:27;30.10;99.90
10583;DHT22;33679;51.218;6.786;2023-09-08T12:15:59;30.10;99.90
10583;DHT22;33679;51.218;6.786;2023-09-08T12:18:38;30.20;99.90
10583;DHT22;33679;51.218;6.786;2023-09-08T12:21:11;30.30;99.90
10583;DHT22;33679;51.218;6.786;2023-09-08T12:23:47;30.30;99.90
10583;DHT22;33679;51.218;6.786;2023-09-08T12:26:21;30.40;99.90
10583;DHT22;33679;51.218;6.786;2023-09-08T12:29:00;30.40;99.90
10583;DHT22;33679;51.218;6.786;2023-09-08T12:31:38;30.50;99.90
10583;DHT22;33679;51.218;6.786;2023-09-08T12:34:11;30.50;99.90
10583;DHT22;33679;51.218;6.786;2023-09-08T12:36:44;30.60;99.90
10583;DHT22;33679;51.218;6.786;2023-09-08T12:39:17;30.60;99.90
10583;DHT22;33679;51.218;6.786;2023-09-08T12:41:52;30.70;99.90
10583;DHT22;33679;51.218;6.786;2023-09-08T12:44:29;30.70;99.90
10583;DHT22;33679;51.218;6.786;2023-09-08T12:47:01;30.70;99.90
10583;DHT22;33679;51.218;6.786;2023-09-08T12:49:34;30.80;99.90
10583;DHT22;33679;51.218;6.786;2023-09-08T12:52:06;30.80;99.90
10583;DHT22;33679;51.218;6.786;2023-09-08T12:54:40;30.90;99.90
10583;DHT22;33679;51.218;6.786;2023-09-08T12:57:13;30.90;99.90
10583;DHT22;33679;51.218;6.786;2023-09-08T12:59:47;30.90;99.90
10583;DHT22;33679;51.218;6.786;2023-09-08T13:02:20;30.90;99.90
10583;DHT22;33679;51.218;6.786;2023-09-08T13:04:52;31.00;99.90
10583;DHT22;33679;51.218;6.786;2023-09-08T13:07:26;31.00;99.90
10583;DHT22;33679;51.218;6.786;2023-09-08T13:09:58;31.00;99.90
10583;DHT22;33679;51.218;6.786;2023-09-08T13:12:26;31.10;99.90
10583;DHT22;33679;51.218;6.786;2023-09-08T13:15:00;31.10;99.90
10583;DHT22;33679;51.218;6.786;2023-09-08T13:17:33;31.10;99.90
10583;DHT22;33679;51.218;6.786;2023-09-08T13:20:07;31.10;99.90
10583;DHT22;33679;51.218;6.786;2023-09-08T13:22:40;31.10;99.90
10583;DHT22;33679;51.218;6.786;2023-09-08T13:25:13;31.20;99.90
10583;DHT22;33679;51.218;6.786;2023-09-08T13:27:46;31.20;99.90
10583;DHT22;33679;51.218;6.786;2023-09-08T13:30:22;31.30;99.90
10583;DHT22;33679;51.218;6.786;2023-09-08T13:33:00;31.30;99.90
10583;DHT22;33679;51.218;6.786;2023-09-08T13:35:34;31.30;99.90
10583;DHT22;33679;51.218;6.786;2023-09-08T13:38:07;31.30;99.90
10583;DHT22;33679;51.218;6.786;2023-09-08T13:40:39;31.30;99.90
10583;DHT22;33679;51.218;6.786;2023-09-08T13:43:12;31.30;99.90
10583;DHT22;33679;51.218;6.786;2023-09-08T13:45:46;31.30;99.90
10583;DHT22;33679;51.218;6.786;2023-09-08T13:48:19;31.30;99.90
10583;DHT22;33679;51.218;6.786;2023-09-08T13:50:53;31.40;99.90
10583;DHT22;33679;51.218;6.786;2023-09-08T13:53:30;31.50;99.90
10583;DHT22;33679;51.218;6.786;2023-09-08T13:56:09;31.50;99.90
10583;DHT22;33679;51.218;6.786;2023-09-08T13:58:42;31.50;99.90
10583;DHT22;33679;51.218;6.786;2023-09-08T14:01:17;31.50;99.90
10583;DHT22;33679;51.218;6.786;2023-09-08T14:03:51;31.50;99.90
10583;DHT22;33679;51.218;6.786;2023-09-08T14:06:24;31.50;99.90
10583;DHT22;33679;51.218;6.786;2023-09-08T14:08:56;31.50;99.90
10583;DHT22;33679;51.218;6.786;2023-09-08T14:11:28;31.60;99.90
10583;DHT22;33679;51.218;6.786;2023-09-08T14:14:01;31.60;99.90
10583;DHT22;33679;51.218;6.786;2023-09-08T14:16:35;31.70;99.90
10583;DHT22;33679;51.218;6.786;2023-09-08T14:19:08;31.70;99.90
10583;DHT22;33679;51.218;6.786;2023-09-08T14:21:42;31.70;99.90
10583;DHT22;33679;51.218;6.786;2023-09-08T14:24:15;31.70;99.90
10583;DHT22;33679;51.218;6.786;2023-09-08T14:26:47;31.70;99.90
10583;DHT22;33679;51.218;6.786;2023-09-08T14:29:22;31.80;99.90
10583;DHT22;33679;51.218;6.786;2023-09-08T14:31:56;31.80;99.90
10583;DHT22;33679;51.218;6.786;2023-09-08T14:34:29;31.80;99.90
10583;DHT22;33679;51.218;6.786;2023-09-08T14:37:03;31.80;99.90
10583;DHT22;33679;51.218;6.786;2023-09-08T14:39:37;31.80;99.90
10583;DHT22;33679;51.218;6.786;2023-09-08T14:42:13;31.80;99.90
10583;DHT22;33679;51.218;6.786;2023-09-08T14:44:46;31.80;99.90
10583;DHT22;33679;51.218;6.786;2023-09-08T14:47:21;31.80;99.90
10583;DHT22;33679;51.218;6.786;2023-09-08T14:49:56;31.70;99.90
10583;DHT22;33679;51.218;6.786;2023-09-08T14:52:30;31.80;99.90
10583;DHT22;33679;51.218;6.786;2023-09-08T14:55:03;31.80;99.90
10583;DHT22;33679;51.218;6.786;2023-09-08T14:57:36;31.90;99.90
10583;DHT22;33679;51.218;6.786;2023-09-08T15:00:10;31.90;99.90
10583;DHT22;33679;51.218;6.786;2023-09-08T15:02:46;31.90;99.90
10583;DHT22;33679;51.218;6.786;2023-09-08T15:05:20;31.90;99.90
10583;DHT22;33679;51.218;6.786;2023-09-08T15:07:55;31.90;99.90
10583;DHT22;33679;51.218;6.786;2023-09-08T15:10:28;32.00;99.90
10583;DHT22;33679;51.218;6.786;2023-09-08T15:13:02;32.00;99.90
10583;DHT22;33679;51.218;6.786;2023-09-08T15:15:34;32.00;99.90
10583;DHT22;33679;51.218;6.786;2023-09-08T15:18:12;32.00;99.90
10583;DHT22;33679;51.218;6.786;2023-09-08T15:20:50;32.00;99.90
10583;DHT22;33679;51.218;6.786;2023-09-08T15:23:36;32.00;99.90
10583;DHT22;33679;51.218;6.786;2023-09-08T15:26:08;32.00;99.90
10583;DHT22;33679;51.218;6.786;2023-09-08T15:28:41;32.00;99.90
10583;DHT22;33679;51.218;6.786;2023-09-08T15:31:17;32.00;99.90
10583;DHT22;33679;51.218;6.786;2023-09-08T15:33:51;32.00;99.90
10583;DHT22;33679;51.218;6.786;2023-09-08T15:36:24;32.00;99.90
10583;DHT22;33679;51.218;6.786;2023-09-08T15:38:56;32.00;99.90
10583;DHT22;33679;51.218;6.786;2023-09-08T15:41:29;32.10;99.90
10583;DHT22;33679;51.218;6.786;2023-09-08T15:44:03;32.10;99.90
10583;DHT22;33679;51.218;6.786;2023-09-08T15:46:35;32.00;99.90
10583;DHT22;33679;51.218;6.786;2023-09-08T15:49:09;32.10;99.90
10583;DHT22;33679;51.218;6.786;2023-09-08T15:51:42;32.10;99.90
10583;DHT22;33679;51.218;6.786;2023-09-08T15:54:14;32.00;99.90
10583;DHT22;33679;51.218;6.786;2023-09-08T15:56:47;32.00;99.90
10583;DHT22;33679;51.218;6.786;2023-09-08T15:59:22;32.00;99.90
10583;DHT22;33679;51.218;6.786;2023-09-08T16:01:55;32.00;99.90
10583;DHT22;33679;51.218;6.786;2023-09-08T16:04:29;32.00;99.90
10583;DHT22;33679;51.218;6.786;2023-09-08T16:07:01;31.90;99.90
10583;DHT22;33679;51.218;6.786;2023-09-08T16:09:34;31.90;99.90
10583;DHT22;33679;51.218;6.786;2023-09-08T16:12:06;31.90;99.90